sensor_id;sensor_type;location;lat;lon;timestamp;P1;durP1;ratioP1;P2;durP2;ratioP2
20533;SDS011;12929;56.822;26.056;2022-07-23T00:01:45;17.98;;;9.05;;
20533;SDS011;12929;56.822;26.056;2022-07-23T00:04:14;16.65;;;8.05;;
20533;SDS011;12929;56.822;26.056;2022-07-23T00:06:42;15.00;;;8.05;;
20533;SDS011;12929;56.822;26.056;2022-07-23T00:09:09;14.68;;;8.13;;
20533;SDS011;12929;56.822;26.056;2022-07-23T00:11:37;15.13;;;8.20;;
20533;SDS011;12929;56.822;26.056;2022-07-23T00:14:05;14.27;;;8.88;;
20533;SDS011;12929;56.822;26.056;2022-07-23T00:16:32;14.85;;;7.97;;
20533;SDS011;12929;56.822;26.056;2022-07-23T00:19:00;16.98;;;8.30;;
20533;SDS011;12929;56.822;26.056;2022-07-23T00:21:30;13.52;;;6.95;;
20533;SDS011;12929;56.822;26.056;2022-07-23T00:23:57;12.25;;;7.45;;
20533;SDS011;12929;56.822;26.056;2022-07-23T00:26:25;16.02;;;8.02;;
20533;SDS011;12929;56.822;26.056;2022-07-23T00:28:52;15.07;;;8.47;;
20533;SDS011;12929;56.822;26.056;2022-07-23T00:31:20;16.70;;;8.07;;
20533;SDS011;12929;56.822;26.056;2022-07-23T00:33:48;11.57;;;7.70;;
20533;SDS011;12929;56.822;26.056;2022-07-23T00:36:15;15.25;;;8.30;;
20533;SDS011;12929;56.822;26.056;2022-07-23T00:38:43;13.10;;;8.00;;
20533;SDS011;12929;56.822;26.056;2022-07-23T00:41:10;16.88;;;8.85;;
20533;SDS011;12929;56.822;26.056;2022-07-23T00:43:38;13.55;;;8.23;;
20533;SDS011;12929;56.822;26.056;2022-07-23T00:46:06;13.32;;;7.40;;
20533;SDS011;12929;56.822;26.056;2022-07-23T00:48:34;14.65;;;7.65;;
20533;SDS011;12929;56.822;26.056;2022-07-23T00:51:01;12.77;;;7.80;;
20533;SDS011;12929;56.822;26.056;2022-07-23T00:53:29;13.40;;;7.35;;
20533;SDS011;12929;56.822;26.056;2022-07-23T00:55:58;14.10;;;8.73;;
20533;SDS011;12929;56.822;26.056;2022-07-23T00:58:26;17.15;;;9.10;;
20533;SDS011;12929;56.822;26.056;2022-07-23T01:00:54;15.20;;;8.80;;
20533;SDS011;12929;56.822;26.056;2022-07-23T01:03:22;10.23;;;6.63;;
20533;SDS011;12929;56.822;26.056;2022-07-23T01:05:50;16.95;;;8.40;;
20533;SDS011;12929;56.822;26.056;2022-07-23T01:08:17;14.00;;;8.77;;
20533;SDS011;12929;56.822;26.056;2022-07-23T01:10:48;13.40;;;7.82;;
20533;SDS011;12929;56.822;26.056;2022-07-23T01:13:18;17.37;;;8.80;;
20533;SDS011;12929;56.822;26.056;2022-07-23T01:15:46;13.48;;;7.57;;
20533;SDS011;12929;56.822;26.056;2022-07-23T01:18:13;13.73;;;8.48;;
20533;SDS011;12929;56.822;26.056;2022-07-23T01:20:41;12.80;;;7.82;;
20533;SDS011;12929;56.822;26.056;2022-07-23T01:23:09;14.40;;;8.33;;
20533;SDS011;12929;56.822;26.056;2022-07-23T01:25:49;16.10;;;8.70;;
20533;SDS011;12929;56.822;26.056;2022-07-23T01:28:20;14.27;;;7.95;;
20533;SDS011;12929;56.822;26.056;2022-07-23T01:30:48;15.32;;;7.93;;
20533;SDS011;12929;56.822;26.056;2022-07-23T01:33:16;15.52;;;8.05;;
20533;SDS011;12929;56.822;26.056;2022-07-23T01:35:44;12.60;;;7.93;;
20533;SDS011;12929;56.822;26.056;2022-07-23T01:38:17;15.67;;;8.47;;
20533;SDS011;12929;56.822;26.056;2022-07-23T01:40:46;13.93;;;8.68;;
20533;SDS011;12929;56.822;26.056;2022-07-23T01:43:21;15.35;;;8.82;;
20533;SDS011;12929;56.822;26.056;2022-07-23T01:45:52;13.02;;;8.40;;
20533;SDS011;12929;56.822;26.056;2022-07-23T01:48:20;13.95;;;8.40;;
20533;SDS011;12929;56.822;26.056;2022-07-23T01:51:06;14.80;;;9.35;;
20533;SDS011;12929;56.822;26.056;2022-07-23T01:53:41;14.32;;;9.02;;
20533;SDS011;12929;56.822;26.056;2022-07-23T01:56:09;13.15;;;8.20;;
20533;SDS011;12929;56.822;26.056;2022-07-23T01:58:37;14.85;;;8.52;;
20533;SDS011;12929;56.822;26.056;2022-07-23T02:01:05;14.15;;;9.68;;
20533;SDS011;12929;56.822;26.056;2022-07-23T02:03:32;12.75;;;7.85;;
20533;SDS011;12929;56.822;26.056;2022-07-23T02:06:00;13.63;;;8.93;;
20533;SDS011;12929;56.822;26.056;2022-07-23T02:08:28;13.70;;;9.40;;
20533;SDS011;12929;56.822;26.056;2022-07-23T02:10:56;14.07;;;9.70;;
20533;SDS011;12929;56.822;26.056;2022-07-23T02:13:26;13.75;;;8.65;;
20533;SDS011;12929;56.822;26.056;2022-07-23T02:16:00;14.90;;;8.77;;
20533;SDS011;12929;56.822;26.056;2022-07-23T02:18:28;12.88;;;8.25;;
20533;SDS011;12929;56.822;26.056;2022-07-23T02:20:56;17.05;;;10.00;;
20533;SDS011;12929;56.822;26.056;2022-07-23T02:23:23;14.60;;;9.17;;
20533;SDS011;12929;56.822;26.056;2022-07-23T02:25:52;15.77;;;10.45;;
20533;SDS011;12929;56.822;26.056;2022-07-23T02:28:20;14.63;;;9.00;;
20533;SDS011;12929;56.822;26.056;2022-07-23T02:30:48;16.77;;;10.57;;
20533;SDS011;12929;56.822;26.056;2022-07-23T02:33:15;14.50;;;9.55;;
20533;SDS011;12929;56.822;26.056;2022-07-23T02:35:44;13.68;;;8.00;;
20533;SDS011;12929;56.822;26.056;2022-07-23T02:38:12;13.00;;;8.80;;
20533;SDS011;12929;56.822;26.056;2022-07-23T02:40:40;15.85;;;9.35;;
20533;SDS011;12929;56.822;26.056;2022-07-23T02:43:08;12.02;;;9.20;;
20533;SDS011;12929;56.822;26.056;2022-07-23T02:45:35;13.40;;;9.93;;
20533;SDS011;12929;56.822;26.056;2022-07-23T02:48:03;14.32;;;10.38;;
20533;SDS011;12929;56.822;26.056;2022-07-23T02:50:31;14.10;;;9.07;;
20533;SDS011;12929;56.822;26.056;2022-07-23T02:52:59;12.90;;;9.02;;
20533;SDS011;12929;56.822;26.056;2022-07-23T02:55:27;13.32;;;9.07;;
20533;SDS011;12929;56.822;26.056;2022-07-23T02:57:58;14.52;;;10.30;;
20533;SDS011;12929;56.822;26.056;2022-07-23T03:00:26;13.63;;;8.73;;
20533;SDS011;12929;56.822;26.056;2022-07-23T03:02:55;18.60;;;9.13;;
20533;SDS011;12929;56.822;26.056;2022-07-23T03:05:22;16.00;;;9.20;;
20533;SDS011;12929;56.822;26.056;2022-07-23T03:07:50;16.05;;;10.60;;
20533;SDS011;12929;56.822;26.056;2022-07-23T03:10:19;15.75;;;11.60;;
20533;SDS011;12929;56.822;26.056;2022-07-23T03:12:46;15.57;;;11.80;;
20533;SDS011;12929;56.822;26.056;2022-07-23T03:15:14;16.05;;;11.02;;
20533;SDS011;12929;56.822;26.056;2022-07-23T03:17:42;14.45;;;9.35;;
20533;SDS011;12929;56.822;26.056;2022-07-23T03:20:10;13.57;;;10.32;;
20533;SDS011;12929;56.822;26.056;2022-07-23T03:22:38;16.45;;;11.02;;
20533;SDS011;12929;56.822;26.056;2022-07-23T03:25:06;17.02;;;11.85;;
20533;SDS011;12929;56.822;26.056;2022-07-23T03:27:34;14.70;;;11.13;;
20533;SDS011;12929;56.822;26.056;2022-07-23T03:30:02;17.50;;;12.50;;
20533;SDS011;12929;56.822;26.056;2022-07-23T03:32:33;19.85;;;13.73;;
20533;SDS011;12929;56.822;26.056;2022-07-23T03:35:00;20.50;;;14.38;;
20533;SDS011;12929;56.822;26.056;2022-07-23T03:37:28;19.07;;;12.93;;
20533;SDS011;12929;56.822;26.056;2022-07-23T03:39:57;15.25;;;10.60;;
20533;SDS011;12929;56.822;26.056;2022-07-23T03:42:25;16.38;;;11.20;;
20533;SDS011;12929;56.822;26.056;2022-07-23T03:44:54;16.92;;;10.82;;
20533;SDS011;12929;56.822;26.056;2022-07-23T03:47:22;19.20;;;13.50;;
20533;SDS011;12929;56.822;26.056;2022-07-23T03:49:49;17.38;;;13.02;;
20533;SDS011;12929;56.822;26.056;2022-07-23T03:52:17;18.43;;;13.30;;
20533;SDS011;12929;56.822;26.056;2022-07-23T03:54:45;15.07;;;12.18;;
20533;SDS011;12929;56.822;26.056;2022-07-23T03:57:12;16.73;;;13.15;;
20533;SDS011;12929;56.822;26.056;2022-07-23T03:59:40;18.55;;;13.73;;
20533;SDS011;12929;56.822;26.056;2022-07-23T04:02:08;17.95;;;13.55;;
20533;SDS011;12929;56.822;26.056;2022-07-23T04:04:36;20.20;;;14.23;;
20533;SDS011;12929;56.822;26.056;2022-07-23T04:07:04;22.42;;;14.88;;
20533;SDS011;12929;56.822;26.056;2022-07-23T04:09:33;18.37;;;13.70;;
20533;SDS011;12929;56.822;26.056;2022-07-23T04:12:01;19.60;;;14.00;;
20533;SDS011;12929;56.822;26.056;2022-07-23T04:14:29;20.92;;;15.40;;
20533;SDS011;12929;56.822;26.056;2022-07-23T04:16:56;21.30;;;14.97;;
20533;SDS011;12929;56.822;26.056;2022-07-23T04:19:25;19.57;;;15.03;;
20533;SDS011;12929;56.822;26.056;2022-07-23T04:22:03;20.33;;;14.50;;
20533;SDS011;12929;56.822;26.056;2022-07-23T04:24:33;18.23;;;14.40;;
20533;SDS011;12929;56.822;26.056;2022-07-23T04:27:01;19.98;;;14.45;;
20533;SDS011;12929;56.822;26.056;2022-07-23T04:29:30;19.40;;;13.30;;
20533;SDS011;12929;56.822;26.056;2022-07-23T04:31:58;18.08;;;13.55;;
20533;SDS011;12929;56.822;26.056;2022-07-23T04:34:26;20.95;;;14.00;;
20533;SDS011;12929;56.822;26.056;2022-07-23T04:36:54;19.05;;;12.85;;
20533;SDS011;12929;56.822;26.056;2022-07-23T04:39:22;19.25;;;13.35;;
20533;SDS011;12929;56.822;26.056;2022-07-23T04:41:50;17.45;;;13.30;;
20533;SDS011;12929;56.822;26.056;2022-07-23T04:44:18;16.42;;;12.73;;
20533;SDS011;12929;56.822;26.056;2022-07-23T04:46:47;18.15;;;13.23;;
20533;SDS011;12929;56.822;26.056;2022-07-23T04:49:16;18.77;;;12.95;;
20533;SDS011;12929;56.822;26.056;2022-07-23T04:51:45;16.63;;;12.10;;
20533;SDS011;12929;56.822;26.056;2022-07-23T04:54:14;17.02;;;11.52;;
20533;SDS011;12929;56.822;26.056;2022-07-23T04:56:42;16.73;;;11.80;;
20533;SDS011;12929;56.822;26.056;2022-07-23T04:59:10;16.02;;;12.07;;
20533;SDS011;12929;56.822;26.056;2022-07-23T05:01:39;17.08;;;11.55;;
20533;SDS011;12929;56.822;26.056;2022-07-23T05:04:09;17.33;;;11.97;;
20533;SDS011;12929;56.822;26.056;2022-07-23T05:06:38;18.00;;;12.27;;
20533;SDS011;12929;56.822;26.056;2022-07-23T05:09:06;16.58;;;11.88;;
20533;SDS011;12929;56.822;26.056;2022-07-23T05:11:34;16.75;;;11.13;;
20533;SDS011;12929;56.822;26.056;2022-07-23T05:14:01;15.73;;;11.00;;
20533;SDS011;12929;56.822;26.056;2022-07-23T05:16:29;17.10;;;11.63;;
20533;SDS011;12929;56.822;26.056;2022-07-23T05:19:02;18.70;;;11.40;;
20533;SDS011;12929;56.822;26.056;2022-07-23T05:21:32;20.42;;;12.13;;
20533;SDS011;12929;56.822;26.056;2022-07-23T05:24:00;17.98;;;12.07;;
20533;SDS011;12929;56.822;26.056;2022-07-23T05:26:28;16.85;;;11.82;;
20533;SDS011;12929;56.822;26.056;2022-07-23T05:28:56;17.83;;;12.68;;
20533;SDS011;12929;56.822;26.056;2022-07-23T05:31:24;19.50;;;13.00;;
20533;SDS011;12929;56.822;26.056;2022-07-23T05:33:52;18.48;;;12.50;;
20533;SDS011;12929;56.822;26.056;2022-07-23T05:36:20;16.75;;;11.88;;
20533;SDS011;12929;56.822;26.056;2022-07-23T05:38:51;16.42;;;10.85;;
20533;SDS011;12929;56.822;26.056;2022-07-23T05:41:19;17.07;;;10.90;;
20533;SDS011;12929;56.822;26.056;2022-07-23T05:43:47;19.15;;;11.27;;
20533;SDS011;12929;56.822;26.056;2022-07-23T05:46:15;15.68;;;11.65;;
20533;SDS011;12929;56.822;26.056;2022-07-23T05:48:48;18.02;;;11.55;;
20533;SDS011;12929;56.822;26.056;2022-07-23T05:51:42;21.92;;;17.90;;
20533;SDS011;12929;56.822;26.056;2022-07-23T05:54:15;19.05;;;11.00;;
20533;SDS011;12929;56.822;26.056;2022-07-23T05:56:42;13.97;;;10.40;;
20533;SDS011;12929;56.822;26.056;2022-07-23T05:59:11;15.15;;;10.18;;
20533;SDS011;12929;56.822;26.056;2022-07-23T06:01:40;16.65;;;10.35;;
20533;SDS011;12929;56.822;26.056;2022-07-23T06:04:09;15.70;;;10.50;;
20533;SDS011;12929;56.822;26.056;2022-07-23T06:06:43;14.52;;;9.88;;
20533;SDS011;12929;56.822;26.056;2022-07-23T06:09:11;13.13;;;10.13;;
20533;SDS011;12929;56.822;26.056;2022-07-23T06:11:40;17.30;;;10.73;;
20533;SDS011;12929;56.822;26.056;2022-07-23T06:14:09;15.15;;;10.43;;
20533;SDS011;12929;56.822;26.056;2022-07-23T06:16:56;16.27;;;11.60;;
20533;SDS011;12929;56.822;26.056;2022-07-23T06:19:25;13.48;;;10.55;;
20533;SDS011;12929;56.822;26.056;2022-07-23T06:21:53;17.43;;;10.37;;
20533;SDS011;12929;56.822;26.056;2022-07-23T06:24:21;14.15;;;9.88;;
20533;SDS011;12929;56.822;26.056;2022-07-23T06:26:49;14.45;;;10.32;;
20533;SDS011;12929;56.822;26.056;2022-07-23T06:29:18;12.75;;;10.10;;
20533;SDS011;12929;56.822;26.056;2022-07-23T06:31:45;12.95;;;9.73;;
20533;SDS011;12929;56.822;26.056;2022-07-23T06:34:13;14.93;;;10.18;;
20533;SDS011;12929;56.822;26.056;2022-07-23T06:36:41;12.97;;;9.90;;
20533;SDS011;12929;56.822;26.056;2022-07-23T06:39:11;10.93;;;8.40;;
20533;SDS011;12929;56.822;26.056;2022-07-23T06:41:45;13.65;;;10.02;;
20533;SDS011;12929;56.822;26.056;2022-07-23T06:44:17;12.68;;;8.90;;
20533;SDS011;12929;56.822;26.056;2022-07-23T06:46:47;11.77;;;9.27;;
20533;SDS011;12929;56.822;26.056;2022-07-23T06:49:15;11.45;;;8.98;;
20533;SDS011;12929;56.822;26.056;2022-07-23T06:51:43;11.77;;;9.38;;
20533;SDS011;12929;56.822;26.056;2022-07-23T06:54:12;13.83;;;9.23;;
20533;SDS011;12929;56.822;26.056;2022-07-23T06:56:39;12.48;;;9.52;;
20533;SDS011;12929;56.822;26.056;2022-07-23T06:59:10;16.50;;;9.85;;
20533;SDS011;12929;56.822;26.056;2022-07-23T07:01:37;14.57;;;9.57;;
20533;SDS011;12929;56.822;26.056;2022-07-23T07:04:05;12.52;;;10.07;;
20533;SDS011;12929;56.822;26.056;2022-07-23T07:06:33;12.77;;;9.95;;
20533;SDS011;12929;56.822;26.056;2022-07-23T07:09:01;15.50;;;9.83;;
20533;SDS011;12929;56.822;26.056;2022-07-23T07:11:30;14.32;;;9.80;;
20533;SDS011;12929;56.822;26.056;2022-07-23T07:13:57;12.27;;;9.93;;
20533;SDS011;12929;56.822;26.056;2022-07-23T07:16:25;14.18;;;10.98;;
20533;SDS011;12929;56.822;26.056;2022-07-23T07:18:58;17.42;;;13.93;;
20533;SDS011;12929;56.822;26.056;2022-07-23T07:21:27;15.97;;;10.73;;
20533;SDS011;12929;56.822;26.056;2022-07-23T07:23:55;15.75;;;10.73;;
20533;SDS011;12929;56.822;26.056;2022-07-23T07:26:23;14.90;;;10.48;;
20533;SDS011;12929;56.822;26.056;2022-07-23T07:28:51;13.30;;;10.43;;
20533;SDS011;12929;56.822;26.056;2022-07-23T07:31:18;14.70;;;10.68;;
20533;SDS011;12929;56.822;26.056;2022-07-23T07:33:46;13.48;;;10.13;;
20533;SDS011;12929;56.822;26.056;2022-07-23T07:36:14;14.57;;;10.60;;
20533;SDS011;12929;56.822;26.056;2022-07-23T07:38:45;12.07;;;10.02;;
20533;SDS011;12929;56.822;26.056;2022-07-23T07:41:12;13.30;;;10.50;;
20533;SDS011;12929;56.822;26.056;2022-07-23T07:43:40;15.33;;;10.47;;
20533;SDS011;12929;56.822;26.056;2022-07-23T07:46:08;13.35;;;10.13;;
20533;SDS011;12929;56.822;26.056;2022-07-23T07:48:37;14.40;;;10.83;;
20533;SDS011;12929;56.822;26.056;2022-07-23T07:51:04;13.63;;;10.70;;
20533;SDS011;12929;56.822;26.056;2022-07-23T07:53:32;13.27;;;10.40;;
20533;SDS011;12929;56.822;26.056;2022-07-23T07:56:01;31.70;;;27.17;;
20533;SDS011;12929;56.822;26.056;2022-07-23T07:58:28;13.32;;;10.07;;
20533;SDS011;12929;56.822;26.056;2022-07-23T08:00:56;14.77;;;11.85;;
20533;SDS011;12929;56.822;26.056;2022-07-23T08:03:24;13.95;;;10.38;;
20533;SDS011;12929;56.822;26.056;2022-07-23T08:05:51;11.40;;;10.20;;
20533;SDS011;12929;56.822;26.056;2022-07-23T08:08:19;12.57;;;9.02;;
20533;SDS011;12929;56.822;26.056;2022-07-23T08:10:47;12.13;;;9.65;;
20533;SDS011;12929;56.822;26.056;2022-07-23T08:13:17;12.30;;;9.27;;
20533;SDS011;12929;56.822;26.056;2022-07-23T08:15:44;12.80;;;10.13;;
20533;SDS011;12929;56.822;26.056;2022-07-23T08:18:14;10.50;;;8.80;;
20533;SDS011;12929;56.822;26.056;2022-07-23T08:20:42;11.15;;;9.30;;
20533;SDS011;12929;56.822;26.056;2022-07-23T08:23:09;12.85;;;10.10;;
20533;SDS011;12929;56.822;26.056;2022-07-23T08:25:39;10.60;;;9.35;;
20533;SDS011;12929;56.822;26.056;2022-07-23T08:28:10;11.50;;;8.88;;
20533;SDS011;12929;56.822;26.056;2022-07-23T08:30:41;10.88;;;9.07;;
20533;SDS011;12929;56.822;26.056;2022-07-23T08:33:15;13.20;;;9.37;;
20533;SDS011;12929;56.822;26.056;2022-07-23T08:36:00;11.65;;;9.00;;
20533;SDS011;12929;56.822;26.056;2022-07-23T08:38:31;12.80;;;9.00;;
20533;SDS011;12929;56.822;26.056;2022-07-23T08:40:59;11.83;;;8.93;;
20533;SDS011;12929;56.822;26.056;2022-07-23T08:43:28;10.63;;;8.98;;
20533;SDS011;12929;56.822;26.056;2022-07-23T08:45:58;12.40;;;9.45;;
20533;SDS011;12929;56.822;26.056;2022-07-23T08:48:31;12.85;;;9.00;;
20533;SDS011;12929;56.822;26.056;2022-07-23T08:51:02;11.63;;;9.23;;
20533;SDS011;12929;56.822;26.056;2022-07-23T08:53:34;11.30;;;9.20;;
20533;SDS011;12929;56.822;26.056;2022-07-23T08:56:04;12.48;;;9.50;;
20533;SDS011;12929;56.822;26.056;2022-07-23T08:58:35;12.68;;;10.10;;
20533;SDS011;12929;56.822;26.056;2022-07-23T09:01:03;12.57;;;10.18;;
20533;SDS011;12929;56.822;26.056;2022-07-23T09:03:33;11.50;;;9.35;;
20533;SDS011;12929;56.822;26.056;2022-07-23T09:06:03;12.82;;;9.60;;
20533;SDS011;12929;56.822;26.056;2022-07-23T09:08:35;11.07;;;9.63;;
20533;SDS011;12929;56.822;26.056;2022-07-23T09:11:08;13.25;;;10.00;;
20533;SDS011;12929;56.822;26.056;2022-07-23T09:13:53;13.17;;;10.27;;
20533;SDS011;12929;56.822;26.056;2022-07-23T09:16:25;12.90;;;9.90;;
20533;SDS011;12929;56.822;26.056;2022-07-23T09:18:57;15.10;;;10.52;;
20533;SDS011;12929;56.822;26.056;2022-07-23T09:21:27;13.25;;;10.65;;
20533;SDS011;12929;56.822;26.056;2022-07-23T09:31:50;12.73;;;11.10;;
20533;SDS011;12929;56.822;26.056;2022-07-23T09:36:53;14.05;;;10.15;;
20533;SDS011;12929;56.822;26.056;2022-07-23T09:39:29;14.15;;;10.27;;
20533;SDS011;12929;56.822;26.056;2022-07-23T09:42:12;11.30;;;10.10;;
20533;SDS011;12929;56.822;26.056;2022-07-23T09:44:54;12.10;;;9.75;;
20533;SDS011;12929;56.822;26.056;2022-07-23T09:47:23;11.52;;;9.40;;
20533;SDS011;12929;56.822;26.056;2022-07-23T09:52:31;12.00;;;9.65;;
20533;SDS011;12929;56.822;26.056;2022-07-23T09:55:04;12.13;;;9.32;;
20533;SDS011;12929;56.822;26.056;2022-07-23T09:57:33;10.82;;;9.52;;
20533;SDS011;12929;56.822;26.056;2022-07-23T10:00:02;12.27;;;10.20;;
20533;SDS011;12929;56.822;26.056;2022-07-23T10:02:32;19.15;;;12.02;;
20533;SDS011;12929;56.822;26.056;2022-07-23T10:05:19;13.35;;;10.50;;
20533;SDS011;12929;56.822;26.056;2022-07-23T10:08:13;11.38;;;9.38;;
20533;SDS011;12929;56.822;26.056;2022-07-23T10:10:53;10.50;;;9.35;;
20533;SDS011;12929;56.822;26.056;2022-07-23T10:13:44;10.65;;;9.10;;
20533;SDS011;12929;56.822;26.056;2022-07-23T10:16:18;12.80;;;9.80;;
20533;SDS011;12929;56.822;26.056;2022-07-23T10:18:53;10.97;;;9.73;;
20533;SDS011;12929;56.822;26.056;2022-07-23T10:21:26;11.05;;;9.60;;
20533;SDS011;12929;56.822;26.056;2022-07-23T10:24:10;13.68;;;9.70;;
20533;SDS011;12929;56.822;26.056;2022-07-23T10:30:49;12.75;;;10.23;;
20533;SDS011;12929;56.822;26.056;2022-07-23T10:36:09;11.30;;;9.82;;
20533;SDS011;12929;56.822;26.056;2022-07-23T10:41:35;11.10;;;9.65;;
20533;SDS011;12929;56.822;26.056;2022-07-23T10:44:06;11.13;;;9.37;;
20533;SDS011;12929;56.822;26.056;2022-07-23T10:46:35;11.27;;;9.25;;
20533;SDS011;12929;56.822;26.056;2022-07-23T10:49:41;10.90;;;9.32;;
20533;SDS011;12929;56.822;26.056;2022-07-23T10:54:41;9.90;;;8.90;;
20533;SDS011;12929;56.822;26.056;2022-07-23T10:57:25;10.97;;;9.80;;
20533;SDS011;12929;56.822;26.056;2022-07-23T11:02:32;11.38;;;9.70;;
20533;SDS011;12929;56.822;26.056;2022-07-23T11:05:05;10.43;;;9.33;;
20533;SDS011;12929;56.822;26.056;2022-07-23T11:07:35;10.47;;;9.47;;
20533;SDS011;12929;56.822;26.056;2022-07-23T11:10:39;11.05;;;9.75;;
20533;SDS011;12929;56.822;26.056;2022-07-23T11:31:57;11.20;;;10.10;;
20533;SDS011;12929;56.822;26.056;2022-07-23T11:37:08;10.63;;;9.52;;
20533;SDS011;12929;56.822;26.056;2022-07-23T11:39:38;13.30;;;11.57;;
20533;SDS011;12929;56.822;26.056;2022-07-23T11:42:07;13.13;;;10.97;;
20533;SDS011;12929;56.822;26.056;2022-07-23T11:44:36;10.75;;;9.65;;
20533;SDS011;12929;56.822;26.056;2022-07-23T11:47:07;11.90;;;9.88;;
20533;SDS011;12929;56.822;26.056;2022-07-23T11:49:36;13.27;;;11.40;;
20533;SDS011;12929;56.822;26.056;2022-07-23T11:52:12;14.13;;;10.50;;
20533;SDS011;12929;56.822;26.056;2022-07-23T11:54:49;11.25;;;9.60;;
20533;SDS011;12929;56.822;26.056;2022-07-23T11:57:26;11.85;;;10.68;;
20533;SDS011;12929;56.822;26.056;2022-07-23T11:59:58;12.25;;;10.63;;
20533;SDS011;12929;56.822;26.056;2022-07-23T12:02:39;12.10;;;10.80;;
20533;SDS011;12929;56.822;26.056;2022-07-23T12:05:13;12.38;;;11.07;;
20533;SDS011;12929;56.822;26.056;2022-07-23T12:07:43;12.35;;;11.05;;
20533;SDS011;12929;56.822;26.056;2022-07-23T12:12:52;12.68;;;11.00;;
20533;SDS011;12929;56.822;26.056;2022-07-23T12:15:28;16.05;;;11.38;;
20533;SDS011;12929;56.822;26.056;2022-07-23T12:18:00;16.17;;;12.05;;
20533;SDS011;12929;56.822;26.056;2022-07-23T12:20:29;14.20;;;11.25;;
20533;SDS011;12929;56.822;26.056;2022-07-23T12:23:00;13.18;;;10.45;;
20533;SDS011;12929;56.822;26.056;2022-07-23T12:25:32;14.83;;;11.80;;
20533;SDS011;12929;56.822;26.056;2022-07-23T12:28:06;12.38;;;10.63;;
20533;SDS011;12929;56.822;26.056;2022-07-23T12:33:25;12.23;;;10.40;;
20533;SDS011;12929;56.822;26.056;2022-07-23T12:35:57;13.05;;;10.50;;
20533;SDS011;12929;56.822;26.056;2022-07-23T12:38:38;12.35;;;10.95;;
20533;SDS011;12929;56.822;26.056;2022-07-23T12:41:08;13.23;;;11.37;;
20533;SDS011;12929;56.822;26.056;2022-07-23T12:43:36;12.48;;;10.82;;
20533;SDS011;12929;56.822;26.056;2022-07-23T12:51:25;13.48;;;11.52;;
20533;SDS011;12929;56.822;26.056;2022-07-23T12:53:56;11.57;;;10.40;;
20533;SDS011;12929;56.822;26.056;2022-07-23T12:56:33;11.55;;;10.35;;
20533;SDS011;12929;56.822;26.056;2022-07-23T13:01:34;12.88;;;11.32;;
20533;SDS011;12929;56.822;26.056;2022-07-23T13:04:12;12.70;;;10.93;;
20533;SDS011;12929;56.822;26.056;2022-07-23T13:09:26;13.05;;;10.98;;
20533;SDS011;12929;56.822;26.056;2022-07-23T13:11:59;13.45;;;11.23;;
20533;SDS011;12929;56.822;26.056;2022-07-23T13:14:27;13.60;;;11.02;;
20533;SDS011;12929;56.822;26.056;2022-07-23T13:16:55;12.23;;;10.93;;
20533;SDS011;12929;56.822;26.056;2022-07-23T13:19:25;11.90;;;10.80;;
20533;SDS011;12929;56.822;26.056;2022-07-23T13:21:56;12.95;;;11.00;;
20533;SDS011;12929;56.822;26.056;2022-07-23T13:24:24;12.50;;;11.30;;
20533;SDS011;12929;56.822;26.056;2022-07-23T13:26:52;13.23;;;10.90;;
20533;SDS011;12929;56.822;26.056;2022-07-23T13:29:20;13.88;;;10.75;;
20533;SDS011;12929;56.822;26.056;2022-07-23T13:31:48;12.43;;;10.50;;
20533;SDS011;12929;56.822;26.056;2022-07-23T13:34:16;13.23;;;10.65;;
20533;SDS011;12929;56.822;26.056;2022-07-23T13:36:45;11.30;;;10.20;;
20533;SDS011;12929;56.822;26.056;2022-07-23T13:39:13;10.95;;;9.80;;
20533;SDS011;12929;56.822;26.056;2022-07-23T13:41:41;10.55;;;9.45;;
20533;SDS011;12929;56.822;26.056;2022-07-23T13:44:15;11.48;;;9.68;;
20533;SDS011;12929;56.822;26.056;2022-07-23T13:46:48;11.17;;;9.97;;
20533;SDS011;12929;56.822;26.056;2022-07-23T13:49:15;11.20;;;10.00;;
20533;SDS011;12929;56.822;26.056;2022-07-23T13:51:43;12.17;;;9.83;;
20533;SDS011;12929;56.822;26.056;2022-07-23T13:54:11;10.55;;;9.45;;
20533;SDS011;12929;56.822;26.056;2022-07-23T13:56:40;11.68;;;9.93;;
20533;SDS011;12929;56.822;26.056;2022-07-23T13:59:07;12.80;;;9.63;;
20533;SDS011;12929;56.822;26.056;2022-07-23T14:01:36;11.23;;;9.68;;
20533;SDS011;12929;56.822;26.056;2022-07-23T14:04:23;10.95;;;9.82;;
20533;SDS011;12929;56.822;26.056;2022-07-23T14:06:52;11.40;;;9.67;;
20533;SDS011;12929;56.822;26.056;2022-07-23T14:09:20;10.60;;;9.50;;
20533;SDS011;12929;56.822;26.056;2022-07-23T14:11:51;10.52;;;9.43;;
20533;SDS011;12929;56.822;26.056;2022-07-23T14:14:19;10.47;;;9.37;;
20533;SDS011;12929;56.822;26.056;2022-07-23T14:16:47;10.48;;;8.98;;
20533;SDS011;12929;56.822;26.056;2022-07-23T14:19:15;13.98;;;9.50;;
20533;SDS011;12929;56.822;26.056;2022-07-23T14:21:44;10.80;;;9.40;;
20533;SDS011;12929;56.822;26.056;2022-07-23T14:24:12;11.02;;;9.20;;
20533;SDS011;12929;56.822;26.056;2022-07-23T14:26:40;10.25;;;9.25;;
20533;SDS011;12929;56.822;26.056;2022-07-23T14:29:08;11.07;;;9.10;;
20533;SDS011;12929;56.822;26.056;2022-07-23T14:31:37;10.23;;;9.23;;
20533;SDS011;12929;56.822;26.056;2022-07-23T14:34:06;9.23;;;8.32;;
20533;SDS011;12929;56.822;26.056;2022-07-23T14:36:34;9.27;;;8.27;;
20533;SDS011;12929;56.822;26.056;2022-07-23T14:39:05;10.85;;;8.73;;
20533;SDS011;12929;56.822;26.056;2022-07-23T14:41:36;9.77;;;8.83;;
20533;SDS011;12929;56.822;26.056;2022-07-23T14:44:04;9.32;;;8.00;;
20533;SDS011;12929;56.822;26.056;2022-07-23T14:46:32;10.30;;;8.27;;
20533;SDS011;12929;56.822;26.056;2022-07-23T14:49:00;13.13;;;8.63;;
20533;SDS011;12929;56.822;26.056;2022-07-23T14:51:29;8.90;;;8.00;;
20533;SDS011;12929;56.822;26.056;2022-07-23T14:53:58;10.00;;;8.02;;
20533;SDS011;12929;56.822;26.056;2022-07-23T14:56:26;9.82;;;7.93;;
20533;SDS011;12929;56.822;26.056;2022-07-23T14:58:54;9.50;;;7.53;;
20533;SDS011;12929;56.822;26.056;2022-07-23T15:01:22;9.23;;;7.57;;
20533;SDS011;12929;56.822;26.056;2022-07-23T15:03:52;10.73;;;8.00;;
20533;SDS011;12929;56.822;26.056;2022-07-23T15:06:25;10.18;;;7.80;;
20533;SDS011;12929;56.822;26.056;2022-07-23T15:08:53;10.07;;;7.33;;
20533;SDS011;12929;56.822;26.056;2022-07-23T15:11:22;9.10;;;7.13;;
20533;SDS011;12929;56.822;26.056;2022-07-23T15:13:50;9.70;;;6.55;;
20533;SDS011;12929;56.822;26.056;2022-07-23T15:16:18;10.20;;;6.30;;
20533;SDS011;12929;56.822;26.056;2022-07-23T15:18:50;11.13;;;6.03;;
20533;SDS011;12929;56.822;26.056;2022-07-23T15:21:17;8.37;;;6.03;;
20533;SDS011;12929;56.822;26.056;2022-07-23T15:23:46;11.10;;;6.82;;
20533;SDS011;12929;56.822;26.056;2022-07-23T15:26:14;10.17;;;6.20;;
20533;SDS011;12929;56.822;26.056;2022-07-23T15:28:42;8.55;;;6.13;;
20533;SDS011;12929;56.822;26.056;2022-07-23T15:31:10;8.38;;;5.65;;
20533;SDS011;12929;56.822;26.056;2022-07-23T15:33:39;7.40;;;5.72;;
20533;SDS011;12929;56.822;26.056;2022-07-23T15:36:07;8.88;;;5.57;;
20533;SDS011;12929;56.822;26.056;2022-07-23T15:38:36;7.63;;;5.47;;